createdAt,value
2022-12-29T00:01:27.878Z,9.26
2022-12-29T00:06:32.876Z,9.29
2022-12-29T00:11:36.022Z,9.32
2022-12-29T00:16:39.876Z,9.41
2022-12-29T00:22:09.803Z,9.41
2022-12-29T00:27:31.835Z,9.37
2022-12-29T00:32:52.533Z,9.57
2022-12-29T00:38:16.364Z,9.58
2022-12-29T00:43:36.841Z,9.49
2022-12-29T00:48:57.099Z,9.42
2022-12-29T00:54:01.403Z,9.35
2022-12-29T00:59:05.128Z,9.26
2022-12-29T01:04:08.841Z,9.19
2022-12-29T01:09:35.614Z,8.97
2022-12-29T01:14:39.293Z,9.00
2022-12-29T01:19:42.205Z,8.95
2022-12-29T01:24:46.484Z,8.93
2022-12-29T01:29:49.718Z,9.03
2022-12-29T01:34:52.656Z,9.04
2022-12-29T01:39:56.948Z,9.06
2022-12-29T01:45:02.578Z,9.03
2022-12-29T01:50:11.612Z,9.19
2022-12-29T01:55:16.923Z,9.14
2022-12-29T02:00:22.863Z,9.06
2022-12-29T02:05:30.787Z,9.16
2022-12-29T02:10:37.299Z,9.19
2022-12-29T02:15:56.296Z,9.20
2022-12-29T02:21:27.763Z,9.30
2022-12-29T02:26:46.602Z,9.31
2022-12-29T02:31:57.432Z,9.43
2022-12-29T02:37:05.521Z,9.47
2022-12-29T02:42:15.559Z,9.54
2022-12-29T02:47:27.044Z,9.66
2022-12-29T02:52:34.515Z,9.62
2022-12-29T02:57:37.904Z,9.67
2022-12-29T03:03:02.316Z,9.80
2022-12-29T03:08:13.635Z,10.02
2022-12-29T03:13:44.440Z,10.15
2022-12-29T03:19:02.562Z,10.24
2022-12-29T03:24:06.410Z,10.32
2022-12-29T03:29:11.809Z,10.38
2022-12-29T03:34:18.732Z,10.50
2022-12-29T03:39:24.805Z,10.42
2022-12-29T03:44:35.198Z,10.44
2022-12-29T03:49:40.459Z,10.43
2022-12-29T03:54:44.808Z,10.39
2022-12-29T03:59:48.698Z,10.48
2022-12-29T04:04:53.120Z,10.47
2022-12-29T04:09:56.171Z,10.55
2022-12-29T04:15:01.461Z,10.53
2022-12-29T04:20:24.735Z,10.53
2022-12-29T04:25:29.533Z,10.58
2022-12-29T04:30:33.779Z,10.65
2022-12-29T04:35:46.120Z,10.60
2022-12-29T04:40:50.270Z,10.59
2022-12-29T04:45:55.819Z,10.54
2022-12-29T04:51:06.231Z,10.59
2022-12-29T04:56:14.270Z,10.58
2022-12-29T05:01:17.573Z,10.50
2022-12-29T05:06:22.961Z,10.29
2022-12-29T05:11:26.521Z,10.24
2022-12-29T05:16:30.854Z,10.26
2022-12-29T05:21:35.757Z,10.36
2022-12-29T05:26:39.134Z,10.35
2022-12-29T05:31:47.811Z,10.39
2022-12-29T05:36:52.500Z,10.42
2022-12-29T05:41:55.555Z,10.44
2022-12-29T05:47:03.859Z,10.55
2022-12-29T05:52:20.690Z,10.45
2022-12-29T05:57:23.662Z,10.56
2022-12-29T06:02:39.225Z,10.45
2022-12-29T06:07:45.735Z,10.56
2022-12-29T06:12:51.328Z,10.51
2022-12-29T06:17:54.298Z,10.53
2022-12-29T06:22:58.698Z,10.55
2022-12-29T06:28:02.011Z,10.50
2022-12-29T06:33:05.132Z,10.48
2022-12-29T06:38:09.398Z,10.45
2022-12-29T06:43:12.479Z,10.41
2022-12-29T06:48:53.745Z,10.40
2022-12-29T06:53:58.081Z,10.21
2022-12-29T06:59:02.070Z,10.44
2022-12-29T07:04:05.180Z,10.37
2022-12-29T07:09:10.157Z,10.27
2022-12-29T07:14:13.285Z,10.32
2022-12-29T07:19:16.461Z,10.30
2022-12-29T07:24:21.544Z,10.38
2022-12-29T07:29:24.438Z,10.29
2022-12-29T07:34:27.331Z,10.41
2022-12-29T07:39:31.606Z,10.49
2022-12-29T07:44:34.553Z,10.53
2022-12-29T07:50:08.086Z,10.60
2022-12-29T07:55:12.809Z,10.62
2022-12-29T08:00:16.733Z,10.70
2022-12-29T08:05:20.256Z,10.86
2022-12-29T08:10:24.623Z,10.72
2022-12-29T08:15:32.285Z,10.74
2022-12-29T08:20:35.791Z,10.76
2022-12-29T08:25:40.129Z,10.71
2022-12-29T08:30:43.160Z,10.66
2022-12-29T08:35:46.734Z,10.81
2022-12-29T08:40:51.052Z,10.78
2022-12-29T08:45:54.166Z,10.81
2022-12-29T08:50:57.282Z,10.83
2022-12-29T08:56:05.469Z,10.80
2022-12-29T09:01:19.555Z,10.75
2022-12-29T09:06:22.743Z,10.90
2022-12-29T09:11:27.806Z,10.90
2022-12-29T09:16:30.880Z,10.94
2022-12-29T09:21:34.257Z,10.96
2022-12-29T09:26:43.426Z,10.90
2022-12-29T09:31:49.850Z,11.07
2022-12-29T09:36:52.833Z,11.07
2022-12-29T09:42:06.037Z,11.16
2022-12-29T09:47:13.721Z,10.99
2022-12-29T09:52:23.633Z,11.07
2022-12-29T09:57:31.653Z,11.08
2022-12-29T10:02:41.338Z,11.16
2022-12-29T10:07:52.799Z,11.17
2022-12-29T10:13:10.895Z,11.37
2022-12-29T10:18:34.464Z,11.44
2022-12-29T10:23:42.725Z,11.54
2022-12-29T10:28:49.848Z,11.53
2022-12-29T10:33:59.269Z,11.67
2022-12-29T10:39:09.339Z,11.79
2022-12-29T10:44:17.702Z,11.89
2022-12-29T10:49:22.555Z,12.13
2022-12-29T10:54:29.901Z,12.39
2022-12-29T10:59:36.489Z,12.23
2022-12-29T11:04:53.425Z,12.28
2022-12-29T11:09:56.644Z,12.45
2022-12-29T11:15:16.787Z,12.68
2022-12-29T11:20:35.985Z,12.53
2022-12-29T11:25:38.964Z,12.65
2022-12-29T11:30:43.849Z,12.61
2022-12-29T11:35:47.080Z,12.55
2022-12-29T11:40:50.722Z,12.63
2022-12-29T11:45:57.519Z,12.61
2022-12-29T11:51:01.709Z,12.81
2022-12-29T11:56:08.446Z,12.82
2022-12-29T12:01:19.224Z,12.74
2022-12-29T12:06:25.221Z,12.63
2022-12-29T12:11:37.332Z,12.63
2022-12-29T12:16:45.514Z,12.59
2022-12-29T12:21:53.955Z,12.58
2022-12-29T12:27:01.997Z,12.62
2022-12-29T12:32:16.338Z,12.60
2022-12-29T12:37:48.248Z,12.69
2022-12-29T12:43:00.333Z,12.74
2022-12-29T12:48:19.520Z,12.73
2022-12-29T12:53:35.997Z,12.79
2022-12-29T12:58:50.393Z,12.77
2022-12-29T13:04:15.342Z,12.91
2022-12-29T13:09:42.079Z,12.93
2022-12-29T13:14:56.476Z,12.74
2022-12-29T13:20:11.060Z,12.81
2022-12-29T13:25:28.967Z,12.81
2022-12-29T13:30:36.664Z,12.85
2022-12-29T13:35:57.961Z,12.86
2022-12-29T13:41:05.826Z,12.85
2022-12-29T13:46:12.184Z,12.71
2022-12-29T13:51:21.350Z,12.68
2022-12-29T13:56:36.436Z,12.66
2022-12-29T14:01:45.708Z,12.63
2022-12-29T14:07:05.042Z,12.62
2022-12-29T14:12:22.768Z,12.58
2022-12-29T14:17:25.675Z,12.58
2022-12-29T14:22:33.290Z,12.46
2022-12-29T14:27:53.439Z,12.46
2022-12-29T14:33:04.009Z,12.49
2022-12-29T14:38:17.279Z,12.37
2022-12-29T14:43:28.043Z,12.36
2022-12-29T14:48:44.365Z,12.33
2022-12-29T14:53:51.674Z,12.27
2022-12-29T14:58:56.274Z,12.19
2022-12-29T15:04:03.210Z,12.27
2022-12-29T15:09:18.552Z,12.28
2022-12-29T15:14:31.996Z,12.29
2022-12-29T15:19:34.924Z,12.18
2022-12-29T15:24:43.583Z,12.10
2022-12-29T15:29:48.137Z,12.10
2022-12-29T15:34:52.814Z,12.00
2022-12-29T15:39:58.094Z,12.02
2022-12-29T15:45:10.823Z,11.98
2022-12-29T15:50:22.314Z,11.97
2022-12-29T15:55:33.822Z,11.94
2022-12-29T16:00:38.668Z,11.79
2022-12-29T16:05:42.062Z,11.79
2022-12-29T16:10:46.325Z,11.76
2022-12-29T16:15:49.708Z,11.68
2022-12-29T16:20:55.389Z,11.66
2022-12-29T16:26:00.203Z,11.61
2022-12-29T16:31:06.229Z,11.59
2022-12-29T16:36:26.886Z,11.52
2022-12-29T16:41:34.177Z,11.41
2022-12-29T16:46:37.182Z,11.36
2022-12-29T16:51:41.512Z,11.37
2022-12-29T16:56:47.053Z,11.33
2022-12-29T17:01:50.171Z,11.27
2022-12-29T17:06:53.233Z,11.20
2022-12-29T17:12:05.253Z,11.21
2022-12-29T17:17:18.369Z,11.15
2022-12-29T17:22:26.147Z,11.12
2022-12-29T17:27:33.911Z,10.95
2022-12-29T17:32:36.892Z,10.81
2022-12-29T17:37:40.008Z,10.79
2022-12-29T17:42:47.956Z,10.67
2022-12-29T17:47:51.361Z,10.75
2022-12-29T17:53:00.806Z,10.76
2022-12-29T17:58:17.576Z,10.74
2022-12-29T18:03:25.136Z,10.66
2022-12-29T18:08:29.480Z,10.49
2022-12-29T18:13:43.937Z,10.49
2022-12-29T18:18:49.122Z,10.52
2022-12-29T18:23:52.116Z,10.39
2022-12-29T18:28:56.921Z,10.32
2022-12-29T18:34:02.198Z,10.28
2022-12-29T18:39:05.183Z,10.26
2022-12-29T18:44:13.859Z,10.28
2022-12-29T18:49:16.835Z,10.07
2022-12-29T18:54:28.220Z,10.07
2022-12-29T18:59:32.485Z,10.43
2022-12-29T19:04:35.590Z,10.31
2022-12-29T19:09:38.692Z,10.32
2022-12-29T19:14:43.063Z,10.21
2022-12-29T19:19:45.992Z,10.29
2022-12-29T19:24:48.894Z,10.35
2022-12-29T19:29:53.189Z,10.32
2022-12-29T19:34:56.110Z,10.25
2022-12-29T19:39:58.970Z,10.18
2022-12-29T19:45:03.591Z,10.20
2022-12-29T19:50:09.559Z,10.11
2022-12-29T19:55:15.379Z,10.28
2022-12-29T20:00:19.848Z,10.29
2022-12-29T20:05:22.742Z,10.26
2022-12-29T20:10:25.659Z,10.21
2022-12-29T20:15:29.896Z,10.14
2022-12-29T20:20:34.571Z,10.12
2022-12-29T20:25:46.423Z,10.10
2022-12-29T20:31:01.499Z,9.96
2022-12-29T20:36:08.693Z,9.79
2022-12-29T20:41:11.819Z,9.83
2022-12-29T20:46:20.754Z,9.76
2022-12-29T20:51:24.916Z,9.75
2022-12-29T20:56:30.204Z,9.80
2022-12-29T21:01:35.267Z,9.67
2022-12-29T21:06:38.309Z,9.61
2022-12-29T21:11:41.203Z,9.63
2022-12-29T21:16:45.567Z,9.55
2022-12-29T21:21:48.426Z,9.50
2022-12-29T21:26:51.435Z,9.43
2022-12-29T21:31:56.350Z,9.43
2022-12-29T21:37:00.608Z,9.34
2022-12-29T21:42:03.515Z,9.18
2022-12-29T21:47:07.901Z,9.10
2022-12-29T21:52:10.834Z,9.01
2022-12-29T21:57:35.745Z,8.90
2022-12-29T22:02:57.346Z,8.88
2022-12-29T22:08:18.132Z,8.79
2022-12-29T22:13:21.048Z,8.85
2022-12-29T22:18:25.272Z,8.71
2022-12-29T22:23:28.123Z,8.83
2022-12-29T22:28:31.045Z,8.76
2022-12-29T22:33:35.340Z,8.86
2022-12-29T22:38:38.208Z,8.82
2022-12-29T22:43:41.453Z,8.73
2022-12-29T22:48:45.731Z,8.69
2022-12-29T22:53:49.892Z,8.65
2022-12-29T22:58:52.883Z,8.64
2022-12-29T23:04:10.290Z,8.65
2022-12-29T23:09:22.984Z,8.69
2022-12-29T23:14:26.119Z,8.67
2022-12-29T23:19:30.356Z,8.68
2022-12-29T23:24:33.253Z,8.68
2022-12-29T23:29:36.169Z,8.78
2022-12-29T23:34:40.446Z,8.75
2022-12-29T23:39:43.378Z,8.66
2022-12-29T23:44:46.305Z,8.71
2022-12-29T23:49:50.612Z,8.66
2022-12-29T23:54:53.547Z,8.69
2022-12-29T23:59:56.428Z,8.64
